Time;durP1;ratioP1;P1;durP2;ratioP2;P2;SDS_P1;SDS_P2;PMS_P1;PMS_P2;Temp;Humidity;BMP_temperature;BMP_pressure;BME280_temperature;BME280_humidity;BME280_pressure;Samples;Min_cycle;Max_cycle;Signal;HPM_P1;HPM_P2
2019/07/14 00:00:26;;;;;;;21.4;17.4;;;;;;;13.84;100;95341.77;;;;
2019/07/14 00:01:51;;;;;;;21.4;17.4;;;;;;;13.84;100;95341.77;;;;
2019/07/14 00:02:52;;;;;;;21.4;17.4;;;;;;;13.84;100;95341.77;;;;
2019/07/14 00:03:53;;;;;;;21.4;17.4;;;;;;;13.84;100;95341.77;;;;
2019/07/14 00:04:55;;;;;;;21.4;17.4;;;;;;;13.84;100;95341.77;;;;
2019/07/14 00:05:56;;;;;;;18.05;15.8;;;;;;;13.96;100;95326.17;;;;
2019/07/14 00:06:57;;;;;;;18.05;15.8;;;;;;;13.96;100;95326.17;;;;
2019/07/14 00:07:58;;;;;;;18.05;15.8;;;;;;;13.96;100;95326.17;;;;
2019/07/14 00:08:59;;;;;;;18.05;15.8;;;;;;;13.96;100;95326.17;;;;
2019/07/14 00:10:00;;;;;;;18.05;15.8;;;;;;;13.96;100;95326.17;;;;
2019/07/14 00:11:01;;;;;;;18.05;15.8;;;;;;;13.96;100;95326.17;;;;
2019/07/14 00:12:02;;;;;;;18.05;15.8;;;;;;;13.96;100;95326.17;;;;
2019/07/14 00:13:04;;;;;;;18.05;15.8;;;;;;;13.96;100;95326.17;;;;
2019/07/14 00:14:05;;;;;;;18.05;15.8;;;;;;;13.96;100;95326.17;;;;
2019/07/14 00:15:06;;;;;;;18.05;15.8;;;;;;;13.96;100;95326.17;;;;
2019/07/14 00:16:07;;;;;;;19.3;16.2;;;;;;;13.97;100;95318.19;;;;
2019/07/14 00:17:08;;;;;;;19.3;16.2;;;;;;;13.97;100;95318.19;;;;
2019/07/14 00:18:10;;;;;;;19.3;16.2;;;;;;;13.97;100;95318.19;;;;
2019/07/14 00:19:11;;;;;;;19.3;16.2;;;;;;;13.97;100;95318.19;;;;
2019/07/14 00:20:12;;;;;;;19.3;16.2;;;;;;;13.97;100;95318.19;;;;
2019/07/14 00:21:13;;;;;;;19.3;16.2;;;;;;;13.97;100;95318.19;;;;
2019/07/14 00:22:15;;;;;;;19.3;16.2;;;;;;;13.97;100;95318.19;;;;
2019/07/14 00:23:16;;;;;;;19.3;16.2;;;;;;;13.97;100;95318.19;;;;
2019/07/14 00:24:17;;;;;;;19.3;16.2;;;;;;;13.97;100;95318.19;;;;
2019/07/14 00:25:18;;;;;;;19.3;16.2;;;;;;;13.97;100;95318.19;;;;
2019/07/14 00:26:19;;;;;;;19.35;15.25;;;;;;;14.07;100;95317.86;;;;
2019/07/14 00:27:20;;;;;;;19.35;15.25;;;;;;;14.07;100;95317.86;;;;
2019/07/14 00:28:21;;;;;;;19.35;15.25;;;;;;;14.07;100;95317.86;;;;
2019/07/14 00:29:22;;;;;;;19.35;15.25;;;;;;;14.07;100;95317.86;;;;
2019/07/14 00:30:23;;;;;;;19.35;15.25;;;;;;;14.07;100;95317.86;;;;
2019/07/14 00:31:24;;;;;;;19.35;15.25;;;;;;;14.07;100;95317.86;;;;
2019/07/14 00:32:26;;;;;;;19.35;15.25;;;;;;;14.07;100;95317.86;;;;
2019/07/14 00:33:27;;;;;;;19.35;15.25;;;;;;;14.07;100;95317.86;;;;
2019/07/14 00:34:28;;;;;;;19.35;15.25;;;;;;;14.07;100;95317.86;;;;
2019/07/14 00:35:29;;;;;;;19.35;15.25;;;;;;;14.07;100;95317.86;;;;
2019/07/14 00:36:30;;;;;;;19.35;15.25;;;;;;;14.07;100;95317.86;;;;
2019/07/14 00:37:31;;;;;;;18.6;15.5;;;;;;;14.04;100;95306.16;;;;
2019/07/14 00:38:32;;;;;;;18.6;15.5;;;;;;;14.04;100;95306.16;;;;
2019/07/14 00:39:33;;;;;;;18.6;15.5;;;;;;;14.04;100;95306.16;;;;
2019/07/14 00:40:34;;;;;;;18.6;15.5;;;;;;;14.04;100;95306.16;;;;
2019/07/14 00:41:35;;;;;;;18.6;15.5;;;;;;;14.04;100;95306.16;;;;
2019/07/14 00:42:36;;;;;;;18.6;15.5;;;;;;;14.04;100;95306.16;;;;
2019/07/14 00:43:37;;;;;;;18.6;15.5;;;;;;;14.04;100;95306.16;;;;
2019/07/14 00:44:39;;;;;;;18.6;15.5;;;;;;;14.04;100;95306.16;;;;
2019/07/14 00:45:40;;;;;;;18.6;15.5;;;;;;;14.04;100;95306.16;;;;
2019/07/14 00:46:41;;;;;;;18.6;15.5;;;;;;;14.04;100;95306.16;;;;
2019/07/14 00:47:42;;;;;;;17.3;14.95;;;;;;;14.06;100;95303.19;;;;
2019/07/14 00:48:43;;;;;;;17.3;14.95;;;;;;;14.06;100;95303.19;;;;
2019/07/14 00:49:44;;;;;;;17.3;14.95;;;;;;;14.06;100;95303.19;;;;
2019/07/14 00:50:45;;;;;;;17.3;14.95;;;;;;;14.06;100;95303.19;;;;
2019/07/14 00:51:46;;;;;;;17.3;14.95;;;;;;;14.06;100;95303.19;;;;
2019/07/14 00:52:47;;;;;;;17.3;14.95;;;;;;;14.06;100;95303.19;;;;
2019/07/14 00:53:48;;;;;;;17.3;14.95;;;;;;;14.06;100;95303.19;;;;
2019/07/14 00:54:49;;;;;;;17.3;14.95;;;;;;;14.06;100;95303.19;;;;
2019/07/14 00:55:51;;;;;;;17.3;14.95;;;;;;;14.06;100;95303.19;;;;
2019/07/14 00:56:52;;;;;;;17.3;14.95;;;;;;;14.06;100;95303.19;;;;
2019/07/14 00:57:53;;;;;;;16.7;14.95;;;;;;;13.98;100;95297.67;;;;
2019/07/14 00:58:54;;;;;;;16.7;14.95;;;;;;;13.98;100;95297.67;;;;
2019/07/14 00:59:55;;;;;;;16.7;14.95;;;;;;;13.98;100;95297.67;;;;
2019/07/14 01:00:56;;;;;;;16.7;14.95;;;;;;;13.98;100;95297.67;;;;
2019/07/14 01:01:57;;;;;;;16.7;14.95;;;;;;;13.98;100;95297.67;;;;
2019/07/14 01:02:58;;;;;;;16.7;14.95;;;;;;;13.98;100;95297.67;;;;
2019/07/14 01:03:59;;;;;;;16.7;14.95;;;;;;;13.98;100;95297.67;;;;
2019/07/14 01:05:01;;;;;;;16.7;14.95;;;;;;;13.98;100;95297.67;;;;
2019/07/14 01:06:02;;;;;;;16.7;14.95;;;;;;;13.98;100;95297.67;;;;
2019/07/14 01:07:03;;;;;;;16.7;14.95;;;;;;;13.98;100;95297.67;;;;
2019/07/14 01:08:05;;;;;;;16.7;14.95;;;;;;;13.98;100;95297.67;;;;
2019/07/14 01:09:06;;;;;;;16.9;14.75;;;;;;;14.03;100;95292.29;;;;
2019/07/14 01:10:07;;;;;;;16.9;14.75;;;;;;;14.03;100;95292.29;;;;
2019/07/14 01:11:09;;;;;;;16.9;14.75;;;;;;;14.03;100;95292.29;;;;
2019/07/14 01:12:10;;;;;;;16.9;14.75;;;;;;;14.03;100;95292.29;;;;
2019/07/14 01:13:11;;;;;;;16.9;14.75;;;;;;;14.03;100;95292.29;;;;
2019/07/14 01:14:13;;;;;;;16.9;14.75;;;;;;;14.03;100;95292.29;;;;
2019/07/14 01:15:14;;;;;;;16.9;14.75;;;;;;;14.03;100;95292.29;;;;
2019/07/14 01:16:15;;;;;;;16.9;14.75;;;;;;;14.03;100;95292.29;;;;
2019/07/14 01:17:17;;;;;;;16.9;14.75;;;;;;;14.03;100;95292.29;;;;
2019/07/14 01:18:18;;;;;;;16.9;14.75;;;;;;;14.03;100;95292.29;;;;
2019/07/14 01:19:19;;;;;;;18.45;15.4;;;;;;;14.02;100;95277.62;;;;
2019/07/14 01:20:20;;;;;;;18.45;15.4;;;;;;;14.02;100;95277.62;;;;
2019/07/14 01:21:22;;;;;;;18.45;15.4;;;;;;;14.02;100;95277.62;;;;
2019/07/14 01:22:23;;;;;;;18.45;15.4;;;;;;;14.02;100;95277.62;;;;
2019/07/14 01:23:24;;;;;;;18.45;15.4;;;;;;;14.02;100;95277.62;;;;
2019/07/14 01:24:25;;;;;;;18.45;15.4;;;;;;;14.02;100;95277.62;;;;
2019/07/14 01:25:26;;;;;;;18.45;15.4;;;;;;;14.02;100;95277.62;;;;
2019/07/14 01:26:28;;;;;;;18.45;15.4;;;;;;;14.02;100;95277.62;;;;
2019/07/14 01:27:29;;;;;;;18.45;15.4;;;;;;;14.02;100;95277.62;;;;
2019/07/14 01:28:30;;;;;;;18.45;15.4;;;;;;;14.02;100;95277.62;;;;
2019/07/14 01:29:31;;;;;;;18.45;15.4;;;;;;;14.02;100;95277.62;;;;
2019/07/14 01:30:32;;;;;;;17.35;15.05;;;;;;;14.06;100;95273.74;;;;
2019/07/14 01:31:45;;;;;;;17.35;15.05;;;;;;;14.06;100;95273.74;;;;
2019/07/14 01:32:46;;;;;;;17.35;15.05;;;;;;;14.06;100;95273.74;;;;
2019/07/14 01:33:47;;;;;;;17.35;15.05;;;;;;;14.06;100;95273.74;;;;
2019/07/14 01:34:49;;;;;;;17.35;15.05;;;;;;;14.06;100;95273.74;;;;
2019/07/14 01:35:50;;;;;;;17.35;15.05;;;;;;;14.06;100;95273.74;;;;
2019/07/14 01:36:51;;;;;;;17.35;15.05;;;;;;;14.06;100;95273.74;;;;
2019/07/14 01:37:52;;;;;;;17.35;15.05;;;;;;;14.06;100;95273.74;;;;
2019/07/14 01:38:54;;;;;;;17.35;15.05;;;;;;;14.06;100;95273.74;;;;
2019/07/14 01:39:55;;;;;;;17.35;15.05;;;;;;;14.06;100;95273.74;;;;
2019/07/14 01:40:56;;;;;;;18.55;16.6;;;;;;;14;100;95268.91;;;;
2019/07/14 01:41:58;;;;;;;18.55;16.6;;;;;;;14;100;95268.91;;;;
2019/07/14 01:42:59;;;;;;;18.55;16.6;;;;;;;14;100;95268.91;;;;
2019/07/14 01:44:00;;;;;;;18.55;16.6;;;;;;;14;100;95268.91;;;;
2019/07/14 01:45:01;;;;;;;18.55;16.6;;;;;;;14;100;95268.91;;;;
2019/07/14 01:46:03;;;;;;;18.55;16.6;;;;;;;14;100;95268.91;;;;
2019/07/14 01:47:04;;;;;;;18.55;16.6;;;;;;;14;100;95268.91;;;;
2019/07/14 01:48:05;;;;;;;18.55;16.6;;;;;;;14;100;95268.91;;;;
2019/07/14 01:49:06;;;;;;;18.55;16.6;;;;;;;14;100;95268.91;;;;
2019/07/14 01:50:08;;;;;;;18.55;16.6;;;;;;;14;100;95268.91;;;;
2019/07/14 01:51:09;;;;;;;16.9;15.15;;;;;;;14.04;100;95263.67;;;;
2019/07/14 01:52:10;;;;;;;16.9;15.15;;;;;;;14.04;100;95263.67;;;;
2019/07/14 01:53:11;;;;;;;16.9;15.15;;;;;;;14.04;100;95263.67;;;;
2019/07/14 01:54:12;;;;;;;16.9;15.15;;;;;;;14.04;100;95263.67;;;;
2019/07/14 01:55:14;;;;;;;16.9;15.15;;;;;;;14.04;100;95263.67;;;;
2019/07/14 01:56:15;;;;;;;16.9;15.15;;;;;;;14.04;100;95263.67;;;;
2019/07/14 01:57:16;;;;;;;16.9;15.15;;;;;;;14.04;100;95263.67;;;;
2019/07/14 01:58:17;;;;;;;16.9;15.15;;;;;;;14.04;100;95263.67;;;;
2019/07/14 01:59:18;;;;;;;16.9;15.15;;;;;;;14.04;100;95263.67;;;;
2019/07/14 02:00:19;;;;;;;16.9;15.15;;;;;;;14.04;100;95263.67;;;;
2019/07/14 02:01:21;;;;;;;16.9;15.15;;;;;;;14.04;100;95263.67;;;;
2019/07/14 02:02:22;;;;;;;18.85;15.2;;;;;;;14.05;100;95260.27;;;;
2019/07/14 02:03:23;;;;;;;18.85;15.2;;;;;;;14.05;100;95260.27;;;;
2019/07/14 02:04:24;;;;;;;18.85;15.2;;;;;;;14.05;100;95260.27;;;;
2019/07/14 02:05:25;;;;;;;18.85;15.2;;;;;;;14.05;100;95260.27;;;;
2019/07/14 02:06:27;;;;;;;18.85;15.2;;;;;;;14.05;100;95260.27;;;;
2019/07/14 02:07:28;;;;;;;18.85;15.2;;;;;;;14.05;100;95260.27;;;;
2019/07/14 02:08:29;;;;;;;18.85;15.2;;;;;;;14.05;100;95260.27;;;;
2019/07/14 02:09:30;;;;;;;18.85;15.2;;;;;;;14.05;100;95260.27;;;;
2019/07/14 02:10:31;;;;;;;18.85;15.2;;;;;;;14.05;100;95260.27;;;;
2019/07/14 02:11:40;;;;;;;18.85;15.2;;;;;;;14.05;100;95260.27;;;;
2019/07/14 02:12:41;;;;;;;17.8;15.1;;;;;;;14.09;100;95259.11;;;;
2019/07/14 02:13:42;;;;;;;17.8;15.1;;;;;;;14.09;100;95259.11;;;;
2019/07/14 02:14:44;;;;;;;17.8;15.1;;;;;;;14.09;100;95259.11;;;;
2019/07/14 02:15:45;;;;;;;17.8;15.1;;;;;;;14.09;100;95259.11;;;;
2019/07/14 02:16:47;;;;;;;17.8;15.1;;;;;;;14.09;100;95259.11;;;;
2019/07/14 02:17:48;;;;;;;17.8;15.1;;;;;;;14.09;100;95259.11;;;;
2019/07/14 02:18:49;;;;;;;17.8;15.1;;;;;;;14.09;100;95259.11;;;;
2019/07/14 02:19:50;;;;;;;17.8;15.1;;;;;;;14.09;100;95259.11;;;;
2019/07/14 02:20:52;;;;;;;17.8;15.1;;;;;;;14.09;100;95259.11;;;;
2019/07/14 02:21:53;;;;;;;17.8;15.1;;;;;;;14.09;100;95259.11;;;;
2019/07/14 02:22:54;;;;;;;17.55;15.65;;;;;;;14.1;100;95264;;;;
2019/07/14 02:23:55;;;;;;;17.55;15.65;;;;;;;14.1;100;95264;;;;
2019/07/14 02:24:56;;;;;;;17.55;15.65;;;;;;;14.1;100;95264;;;;
2019/07/14 02:25:57;;;;;;;17.55;15.65;;;;;;;14.1;100;95264;;;;
2019/07/14 02:26:59;;;;;;;17.55;15.65;;;;;;;14.1;100;95264;;;;
2019/07/14 02:28:00;;;;;;;17.55;15.65;;;;;;;14.1;100;95264;;;;
2019/07/14 02:29:01;;;;;;;17.55;15.65;;;;;;;14.1;100;95264;;;;
2019/07/14 02:30:03;;;;;;;17.55;15.65;;;;;;;14.1;100;95264;;;;
2019/07/14 02:31:04;;;;;;;17.55;15.65;;;;;;;14.1;100;95264;;;;
2019/07/14 02:32:05;;;;;;;17.55;15.65;;;;;;;14.1;100;95264;;;;
2019/07/14 02:33:07;;;;;;;17.55;15.65;;;;;;;14.1;100;95264;;;;
2019/07/14 02:34:08;;;;;;;20.2;16.1;;;;;;;14.14;100;95265.94;;;;
2019/07/14 02:35:09;;;;;;;20.2;16.1;;;;;;;14.14;100;95265.94;;;;
2019/07/14 02:36:10;;;;;;;20.2;16.1;;;;;;;14.14;100;95265.94;;;;
2019/07/14 02:37:11;;;;;;;20.2;16.1;;;;;;;14.14;100;95265.94;;;;
2019/07/14 02:38:13;;;;;;;20.2;16.1;;;;;;;14.14;100;95265.94;;;;
2019/07/14 02:39:14;;;;;;;20.2;16.1;;;;;;;14.14;100;95265.94;;;;
2019/07/14 02:40:15;;;;;;;20.2;16.1;;;;;;;14.14;100;95265.94;;;;
2019/07/14 02:41:17;;;;;;;20.2;16.1;;;;;;;14.14;100;95265.94;;;;
2019/07/14 02:42:18;;;;;;;20.2;16.1;;;;;;;14.14;100;95265.94;;;;
2019/07/14 02:43:19;;;;;;;20.2;16.1;;;;;;;14.14;100;95265.94;;;;
2019/07/14 02:44:21;;;;;;;17.1;15.1;;;;;;;14.12;100;95255.06;;;;
2019/07/14 02:45:22;;;;;;;17.1;15.1;;;;;;;14.12;100;95255.06;;;;
2019/07/14 02:46:33;;;;;;;17.1;15.1;;;;;;;14.12;100;95255.06;;;;
2019/07/14 02:47:34;;;;;;;17.1;15.1;;;;;;;14.12;100;95255.06;;;;
2019/07/14 02:48:35;;;;;;;17.1;15.1;;;;;;;14.12;100;95255.06;;;;
2019/07/14 02:49:36;;;;;;;17.1;15.1;;;;;;;14.12;100;95255.06;;;;
2019/07/14 02:50:37;;;;;;;17.1;15.1;;;;;;;14.12;100;95255.06;;;;
2019/07/14 02:51:38;;;;;;;17.1;15.1;;;;;;;14.12;100;95255.06;;;;
2019/07/14 02:52:39;;;;;;;17.1;15.1;;;;;;;14.12;100;95255.06;;;;
2019/07/14 02:53:40;;;;;;;17.1;15.1;;;;;;;14.12;100;95255.06;;;;
2019/07/14 02:54:41;;;;;;;20.6;17.7;;;;;;;14.13;100;95253.44;;;;
2019/07/14 02:55:43;;;;;;;20.6;17.7;;;;;;;14.13;100;95253.44;;;;
2019/07/14 02:56:44;;;;;;;20.6;17.7;;;;;;;14.13;100;95253.44;;;;
2019/07/14 02:57:45;;;;;;;20.6;17.7;;;;;;;14.13;100;95253.44;;;;
2019/07/14 02:58:46;;;;;;;20.6;17.7;;;;;;;14.13;100;95253.44;;;;
2019/07/14 02:59:47;;;;;;;20.6;17.7;;;;;;;14.13;100;95253.44;;;;
2019/07/14 03:00:48;;;;;;;20.6;17.7;;;;;;;14.13;100;95253.44;;;;
2019/07/14 03:01:50;;;;;;;20.6;17.7;;;;;;;14.13;100;95253.44;;;;
2019/07/14 03:02:51;;;;;;;20.6;17.7;;;;;;;14.13;100;95253.44;;;;
2019/07/14 03:03:52;;;;;;;20.6;17.7;;;;;;;14.13;100;95253.44;;;;
2019/07/14 03:04:54;;;;;;;20.6;17.7;;;;;;;14.13;100;95253.44;;;;
2019/07/14 03:05:55;;;;;;;17.2;15.1;;;;;;;14.09;100;95252.31;;;;
2019/07/14 03:06:56;;;;;;;17.2;15.1;;;;;;;14.09;100;95252.31;;;;
2019/07/14 03:07:57;;;;;;;17.2;15.1;;;;;;;14.09;100;95252.31;;;;
2019/07/14 03:08:58;;;;;;;17.2;15.1;;;;;;;14.09;100;95252.31;;;;
2019/07/14 03:09:59;;;;;;;17.2;15.1;;;;;;;14.09;100;95252.31;;;;
2019/07/14 03:11:00;;;;;;;17.2;15.1;;;;;;;14.09;100;95252.31;;;;
2019/07/14 03:12:01;;;;;;;17.2;15.1;;;;;;;14.09;100;95252.31;;;;
2019/07/14 03:13:03;;;;;;;17.2;15.1;;;;;;;14.09;100;95252.31;;;;
2019/07/14 03:14:04;;;;;;;17.2;15.1;;;;;;;14.09;100;95252.31;;;;
2019/07/14 03:15:06;;;;;;;17.2;15.1;;;;;;;14.09;100;95252.31;;;;
2019/07/14 03:16:07;;;;;;;19.95;16.6;;;;;;;14.14;100;95252.5;;;;
2019/07/14 03:17:08;;;;;;;19.95;16.6;;;;;;;14.14;100;95252.5;;;;
2019/07/14 03:18:09;;;;;;;19.95;16.6;;;;;;;14.14;100;95252.5;;;;
2019/07/14 03:19:10;;;;;;;19.95;16.6;;;;;;;14.14;100;95252.5;;;;
2019/07/14 03:20:11;;;;;;;19.95;16.6;;;;;;;14.14;100;95252.5;;;;
2019/07/14 03:21:12;;;;;;;19.95;16.6;;;;;;;14.14;100;95252.5;;;;
2019/07/14 03:22:13;;;;;;;19.95;16.6;;;;;;;14.14;100;95252.5;;;;
2019/07/14 03:23:14;;;;;;;19.95;16.6;;;;;;;14.14;100;95252.5;;;;
2019/07/14 03:24:16;;;;;;;19.95;16.6;;;;;;;14.14;100;95252.5;;;;
2019/07/14 03:25:17;;;;;;;19.95;16.6;;;;;;;14.14;100;95252.5;;;;
2019/07/14 03:26:18;;;;;;;24.55;18.6;;;;;;;14.08;100;95249.3;;;;
2019/07/14 03:27:19;;;;;;;24.55;18.6;;;;;;;14.08;100;95249.3;;;;
2019/07/14 03:28:20;;;;;;;24.55;18.6;;;;;;;14.08;100;95249.3;;;;
2019/07/14 03:29:21;;;;;;;24.55;18.6;;;;;;;14.08;100;95249.3;;;;
2019/07/14 03:30:22;;;;;;;24.55;18.6;;;;;;;14.08;100;95249.3;;;;
2019/07/14 03:31:25;;;;;;;24.55;18.6;;;;;;;14.08;100;95249.3;;;;
2019/07/14 03:32:26;;;;;;;24.55;18.6;;;;;;;14.08;100;95249.3;;;;
2019/07/14 03:33:27;;;;;;;24.55;18.6;;;;;;;14.08;100;95249.3;;;;
2019/07/14 03:34:28;;;;;;;24.55;18.6;;;;;;;14.08;100;95249.3;;;;
2019/07/14 03:35:30;;;;;;;24.55;18.6;;;;;;;14.08;100;95249.3;;;;
2019/07/14 03:36:31;;;;;;;24.55;18.6;;;;;;;14.08;100;95249.3;;;;
2019/07/14 03:37:32;;;;;;;23.5;19.25;;;;;;;14.06;100;95251.07;;;;
2019/07/14 03:38:33;;;;;;;23.5;19.25;;;;;;;14.06;100;95251.07;;;;
2019/07/14 03:39:34;;;;;;;23.5;19.25;;;;;;;14.06;100;95251.07;;;;
2019/07/14 03:40:35;;;;;;;23.5;19.25;;;;;;;14.06;100;95251.07;;;;
2019/07/14 03:41:36;;;;;;;23.5;19.25;;;;;;;14.06;100;95251.07;;;;
2019/07/14 03:42:37;;;;;;;23.5;19.25;;;;;;;14.06;100;95251.07;;;;
2019/07/14 03:43:38;;;;;;;23.5;19.25;;;;;;;14.06;100;95251.07;;;;
2019/07/14 03:44:39;;;;;;;23.5;19.25;;;;;;;14.06;100;95251.07;;;;
2019/07/14 03:45:40;;;;;;;23.5;19.25;;;;;;;14.06;100;95251.07;;;;
2019/07/14 03:46:41;;;;;;;23.5;19.25;;;;;;;14.06;100;95251.07;;;;
2019/07/14 03:47:43;;;;;;;27.5;21;;;;;;;14;100;95244.48;;;;
2019/07/14 03:48:44;;;;;;;27.5;21;;;;;;;14;100;95244.48;;;;
2019/07/14 03:49:45;;;;;;;27.5;21;;;;;;;14;100;95244.48;;;;
2019/07/14 03:50:46;;;;;;;27.5;21;;;;;;;14;100;95244.48;;;;
2019/07/14 03:51:47;;;;;;;27.5;21;;;;;;;14;100;95244.48;;;;
2019/07/14 03:52:48;;;;;;;27.5;21;;;;;;;14;100;95244.48;;;;
2019/07/14 03:53:49;;;;;;;27.5;21;;;;;;;14;100;95244.48;;;;
2019/07/14 03:54:50;;;;;;;27.5;21;;;;;;;14;100;95244.48;;;;
2019/07/14 03:55:51;;;;;;;27.5;21;;;;;;;14;100;95244.48;;;;
2019/07/14 03:56:52;;;;;;;27.5;21;;;;;;;14;100;95244.48;;;;
2019/07/14 03:57:53;;;;;;;27.5;21;;;;;;;14;100;95244.48;;;;
2019/07/14 03:58:55;;;;;;;25.45;21.2;;;;;;;14.03;100;95241.13;;;;
2019/07/14 03:59:56;;;;;;;25.45;21.2;;;;;;;14.03;100;95241.13;;;;
2019/07/14 04:00:57;;;;;;;25.45;21.2;;;;;;;14.03;100;95241.13;;;;
2019/07/14 04:01:58;;;;;;;25.45;21.2;;;;;;;14.03;100;95241.13;;;;
2019/07/14 04:02:59;;;;;;;25.45;21.2;;;;;;;14.03;100;95241.13;;;;
2019/07/14 04:04:00;;;;;;;25.45;21.2;;;;;;;14.03;100;95241.13;;;;
2019/07/14 04:05:01;;;;;;;25.45;21.2;;;;;;;14.03;100;95241.13;;;;
2019/07/14 04:06:03;;;;;;;25.45;21.2;;;;;;;14.03;100;95241.13;;;;
2019/07/14 04:07:04;;;;;;;25.45;21.2;;;;;;;14.03;100;95241.13;;;;
2019/07/14 04:08:05;;;;;;;25.45;21.2;;;;;;;14.03;100;95241.13;;;;
2019/07/14 04:09:06;;;;;;;29.85;21.65;;;;;;;14.04;100;95251.86;;;;
2019/07/14 04:10:07;;;;;;;29.85;21.65;;;;;;;14.04;100;95251.86;;;;
2019/07/14 04:11:09;;;;;;;29.85;21.65;;;;;;;14.04;100;95251.86;;;;
2019/07/14 04:12:10;;;;;;;29.85;21.65;;;;;;;14.04;100;95251.86;;;;
2019/07/14 04:13:11;;;;;;;29.85;21.65;;;;;;;14.04;100;95251.86;;;;
2019/07/14 04:14:12;;;;;;;29.85;21.65;;;;;;;14.04;100;95251.86;;;;
2019/07/14 04:15:13;;;;;;;29.85;21.65;;;;;;;14.04;100;95251.86;;;;
2019/07/14 04:16:18;;;;;;;29.85;21.65;;;;;;;14.04;100;95251.86;;;;
2019/07/14 04:17:19;;;;;;;29.85;21.65;;;;;;;14.04;100;95251.86;;;;
2019/07/14 04:18:20;;;;;;;29.85;21.65;;;;;;;14.04;100;95251.86;;;;
2019/07/14 04:19:21;;;;;;;22.5;18.55;;;;;;;14.12;100;95246.92;;;;
2019/07/14 04:20:22;;;;;;;22.5;18.55;;;;;;;14.12;100;95246.92;;;;
2019/07/14 04:21:23;;;;;;;22.5;18.55;;;;;;;14.12;100;95246.92;;;;
2019/07/14 04:22:24;;;;;;;22.5;18.55;;;;;;;14.12;100;95246.92;;;;
2019/07/14 04:23:25;;;;;;;22.5;18.55;;;;;;;14.12;100;95246.92;;;;
2019/07/14 04:24:26;;;;;;;22.5;18.55;;;;;;;14.12;100;95246.92;;;;
2019/07/14 04:25:28;;;;;;;22.5;18.55;;;;;;;14.12;100;95246.92;;;;
2019/07/14 04:26:29;;;;;;;22.5;18.55;;;;;;;14.12;100;95246.92;;;;
2019/07/14 04:27:30;;;;;;;22.5;18.55;;;;;;;14.12;100;95246.92;;;;
2019/07/14 04:28:31;;;;;;;22.5;18.55;;;;;;;14.12;100;95246.92;;;;
2019/07/14 04:29:32;;;;;;;22.5;18.55;;;;;;;14.12;100;95246.92;;;;
2019/07/14 04:30:33;;;;;;;25;19.2;;;;;;;14.14;100;95256.95;;;;
2019/07/14 04:31:34;;;;;;;25;19.2;;;;;;;14.14;100;95256.95;;;;
2019/07/14 04:32:35;;;;;;;25;19.2;;;;;;;14.14;100;95256.95;;;;
2019/07/14 04:33:36;;;;;;;25;19.2;;;;;;;14.14;100;95256.95;;;;
2019/07/14 04:34:37;;;;;;;25;19.2;;;;;;;14.14;100;95256.95;;;;
2019/07/14 04:35:38;;;;;;;25;19.2;;;;;;;14.14;100;95256.95;;;;
2019/07/14 04:36:39;;;;;;;25;19.2;;;;;;;14.14;100;95256.95;;;;
2019/07/14 04:37:41;;;;;;;25;19.2;;;;;;;14.14;100;95256.95;;;;
2019/07/14 04:38:42;;;;;;;25;19.2;;;;;;;14.14;100;95256.95;;;;
2019/07/14 04:39:43;;;;;;;25;19.2;;;;;;;14.14;100;95256.95;;;;
2019/07/14 04:40:44;;;;;;;26.6;21.7;;;;;;;14.21;100;95250.39;;;;
2019/07/14 04:41:45;;;;;;;26.6;21.7;;;;;;;14.21;100;95250.39;;;;
2019/07/14 04:42:46;;;;;;;26.6;21.7;;;;;;;14.21;100;95250.39;;;;
2019/07/14 04:43:47;;;;;;;26.6;21.7;;;;;;;14.21;100;95250.39;;;;
2019/07/14 04:44:49;;;;;;;26.6;21.7;;;;;;;14.21;100;95250.39;;;;
2019/07/14 04:45:50;;;;;;;26.6;21.7;;;;;;;14.21;100;95250.39;;;;
2019/07/14 04:46:51;;;;;;;26.6;21.7;;;;;;;14.21;100;95250.39;;;;
2019/07/14 04:47:52;;;;;;;26.6;21.7;;;;;;;14.21;100;95250.39;;;;
2019/07/14 04:48:53;;;;;;;26.6;21.7;;;;;;;14.21;100;95250.39;;;;
2019/07/14 04:49:54;;;;;;;26.6;21.7;;;;;;;14.21;100;95250.39;;;;
2019/07/14 04:50:55;;;;;;;26.6;21.7;;;;;;;14.21;100;95250.39;;;;
2019/07/14 04:51:56;;;;;;;28.4;21.55;;;;;;;14.22;100;95251.59;;;;
2019/07/14 04:52:57;;;;;;;28.4;21.55;;;;;;;14.22;100;95251.59;;;;
2019/07/14 04:53:58;;;;;;;28.4;21.55;;;;;;;14.22;100;95251.59;;;;
2019/07/14 04:54:59;;;;;;;28.4;21.55;;;;;;;14.22;100;95251.59;;;;
2019/07/14 04:56:01;;;;;;;28.4;21.55;;;;;;;14.22;100;95251.59;;;;
2019/07/14 04:57:02;;;;;;;28.4;21.55;;;;;;;14.22;100;95251.59;;;;
2019/07/14 04:58:03;;;;;;;28.4;21.55;;;;;;;14.22;100;95251.59;;;;
2019/07/14 04:59:04;;;;;;;28.4;21.55;;;;;;;14.22;100;95251.59;;;;
2019/07/14 05:00:05;;;;;;;28.4;21.55;;;;;;;14.22;100;95251.59;;;;
2019/07/14 05:01:07;;;;;;;28.4;21.55;;;;;;;14.22;100;95251.59;;;;
2019/07/14 05:02:08;;;;;;;29.7;23.3;;;;;;;14.38;100;95249.19;;;;
2019/07/14 05:03:09;;;;;;;29.7;23.3;;;;;;;14.38;100;95249.19;;;;
2019/07/14 05:04:10;;;;;;;29.7;23.3;;;;;;;14.38;100;95249.19;;;;
2019/07/14 05:05:11;;;;;;;29.7;23.3;;;;;;;14.38;100;95249.19;;;;
2019/07/14 05:06:13;;;;;;;29.7;23.3;;;;;;;14.38;100;95249.19;;;;
2019/07/14 05:07:14;;;;;;;29.7;23.3;;;;;;;14.38;100;95249.19;;;;
2019/07/14 05:08:15;;;;;;;29.7;23.3;;;;;;;14.38;100;95249.19;;;;
2019/07/14 05:09:17;;;;;;;29.7;23.3;;;;;;;14.38;100;95249.19;;;;
2019/07/14 05:10:18;;;;;;;29.7;23.3;;;;;;;14.38;100;95249.19;;;;
2019/07/14 05:11:20;;;;;;;29.7;23.3;;;;;;;14.38;100;95249.19;;;;
2019/07/14 05:12:22;;;;;;;32.5;22.9;;;;;;;14.48;100;95245.75;;;;
2019/07/14 05:13:23;;;;;;;32.5;22.9;;;;;;;14.48;100;95245.75;;;;
2019/07/14 05:14:24;;;;;;;32.5;22.9;;;;;;;14.48;100;95245.75;;;;
2019/07/14 05:15:25;;;;;;;32.5;22.9;;;;;;;14.48;100;95245.75;;;;
2019/07/14 05:16:26;;;;;;;32.5;22.9;;;;;;;14.48;100;95245.75;;;;
2019/07/14 05:17:27;;;;;;;32.5;22.9;;;;;;;14.48;100;95245.75;;;;
2019/07/14 05:18:28;;;;;;;32.5;22.9;;;;;;;14.48;100;95245.75;;;;
2019/07/14 05:19:29;;;;;;;32.5;22.9;;;;;;;14.48;100;95245.75;;;;
2019/07/14 05:20:30;;;;;;;32.5;22.9;;;;;;;14.48;100;95245.75;;;;
2019/07/14 05:21:31;;;;;;;32.5;22.9;;;;;;;14.48;100;95245.75;;;;
2019/07/14 05:22:33;;;;;;;32.5;22.9;;;;;;;14.48;100;95245.75;;;;
2019/07/14 05:23:34;;;;;;;29.4;22.4;;;;;;;14.7;100;95248.19;;;;
2019/07/14 05:24:35;;;;;;;29.4;22.4;;;;;;;14.7;100;95248.19;;;;
2019/07/14 05:25:36;;;;;;;29.4;22.4;;;;;;;14.7;100;95248.19;;;;
2019/07/14 05:26:37;;;;;;;29.4;22.4;;;;;;;14.7;100;95248.19;;;;
2019/07/14 05:27:38;;;;;;;29.4;22.4;;;;;;;14.7;100;95248.19;;;;
2019/07/14 05:28:39;;;;;;;29.4;22.4;;;;;;;14.7;100;95248.19;;;;
2019/07/14 05:29:40;;;;;;;29.4;22.4;;;;;;;14.7;100;95248.19;;;;
2019/07/14 05:30:41;;;;;;;29.4;22.4;;;;;;;14.7;100;95248.19;;;;
2019/07/14 05:31:43;;;;;;;29.4;22.4;;;;;;;14.7;100;95248.19;;;;
2019/07/14 05:32:44;;;;;;;29.4;22.4;;;;;;;14.7;100;95248.19;;;;
2019/07/14 05:33:45;;;;;;;26.1;21.3;;;;;;;14.9;100;95243.41;;;;
2019/07/14 05:34:46;;;;;;;26.1;21.3;;;;;;;14.9;100;95243.41;;;;
2019/07/14 05:35:47;;;;;;;26.1;21.3;;;;;;;14.9;100;95243.41;;;;
2019/07/14 05:36:48;;;;;;;26.1;21.3;;;;;;;14.9;100;95243.41;;;;
2019/07/14 05:37:49;;;;;;;26.1;21.3;;;;;;;14.9;100;95243.41;;;;
2019/07/14 05:38:50;;;;;;;26.1;21.3;;;;;;;14.9;100;95243.41;;;;
2019/07/14 05:39:51;;;;;;;26.1;21.3;;;;;;;14.9;100;95243.41;;;;
2019/07/14 05:40:52;;;;;;;26.1;21.3;;;;;;;14.9;100;95243.41;;;;
2019/07/14 05:41:54;;;;;;;26.1;21.3;;;;;;;14.9;100;95243.41;;;;
2019/07/14 05:42:55;;;;;;;26.1;21.3;;;;;;;14.9;100;95243.41;;;;
2019/07/14 05:43:56;;;;;;;26.1;21.3;;;;;;;14.9;100;95243.41;;;;
2019/07/14 05:44:57;;;;;;;25.35;20.25;;;;;;;15.16;100;95234.73;;;;
2019/07/14 05:45:58;;;;;;;25.35;20.25;;;;;;;15.16;100;95234.73;;;;
2019/07/14 05:46:59;;;;;;;25.35;20.25;;;;;;;15.16;100;95234.73;;;;
2019/07/14 05:48:00;;;;;;;25.35;20.25;;;;;;;15.16;100;95234.73;;;;
2019/07/14 05:49:01;;;;;;;25.35;20.25;;;;;;;15.16;100;95234.73;;;;
2019/07/14 05:50:02;;;;;;;25.35;20.25;;;;;;;15.16;100;95234.73;;;;
2019/07/14 05:51:04;;;;;;;25.35;20.25;;;;;;;15.16;100;95234.73;;;;
2019/07/14 05:52:05;;;;;;;25.35;20.25;;;;;;;15.16;100;95234.73;;;;
2019/07/14 05:53:06;;;;;;;25.35;20.25;;;;;;;15.16;100;95234.73;;;;
2019/07/14 05:54:07;;;;;;;25.35;20.25;;;;;;;15.16;100;95234.73;;;;
2019/07/14 05:55:09;;;;;;;23.2;19.9;;;;;;;15.47;100;95244.81;;;;
2019/07/14 05:56:10;;;;;;;23.2;19.9;;;;;;;15.47;100;95244.81;;;;
2019/07/14 05:57:11;;;;;;;23.2;19.9;;;;;;;15.47;100;95244.81;;;;
2019/07/14 05:58:12;;;;;;;23.2;19.9;;;;;;;15.47;100;95244.81;;;;
2019/07/14 05:59:13;;;;;;;23.2;19.9;;;;;;;15.47;100;95244.81;;;;
2019/07/14 06:00:15;;;;;;;23.2;19.9;;;;;;;15.47;100;95244.81;;;;
2019/07/14 06:01:31;;;;;;;23.2;19.9;;;;;;;15.47;100;95244.81;;;;
2019/07/14 06:02:32;;;;;;;23.2;19.9;;;;;;;15.47;100;95244.81;;;;
2019/07/14 06:03:33;;;;;;;23.2;19.9;;;;;;;15.47;100;95244.81;;;;
2019/07/14 06:04:34;;;;;;;23.2;19.9;;;;;;;15.47;100;95244.81;;;;
2019/07/14 06:05:35;;;;;;;19.5;17;;;;;;;15.81;100;95240.55;;;;
2019/07/14 06:06:36;;;;;;;19.5;17;;;;;;;15.81;100;95240.55;;;;
2019/07/14 06:07:37;;;;;;;19.5;17;;;;;;;15.81;100;95240.55;;;;
2019/07/14 06:08:38;;;;;;;19.5;17;;;;;;;15.81;100;95240.55;;;;
2019/07/14 06:09:40;;;;;;;19.5;17;;;;;;;15.81;100;95240.55;;;;
2019/07/14 06:10:41;;;;;;;19.5;17;;;;;;;15.81;100;95240.55;;;;
2019/07/14 06:11:42;;;;;;;19.5;17;;;;;;;15.81;100;95240.55;;;;
2019/07/14 06:12:43;;;;;;;19.5;17;;;;;;;15.81;100;95240.55;;;;